sensor_id;sensor_type;location;lat;lon;timestamp;P1;durP1;ratioP1;P2;durP2;ratioP2
6420;SDS011;3243;50.958;7.012;2023-02-26T00:01:33;11.10;;;4.47;;
6420;SDS011;3243;50.958;7.012;2023-02-26T00:04:00;12.27;;;4.63;;
6420;SDS011;3243;50.958;7.012;2023-02-26T00:06:31;12.73;;;4.37;;
6420;SDS011;3243;50.958;7.012;2023-02-26T00:08:59;9.17;;;4.60;;
6420;SDS011;3243;50.958;7.012;2023-02-26T00:11:26;8.23;;;3.40;;
6420;SDS011;3243;50.958;7.012;2023-02-26T00:13:53;11.50;;;3.70;;
6420;SDS011;3243;50.958;7.012;2023-02-26T00:16:29;6.03;;;3.27;;
6420;SDS011;3243;50.958;7.012;2023-02-26T00:19:01;13.20;;;4.13;;
6420;SDS011;3243;50.958;7.012;2023-02-26T00:21:31;12.60;;;4.10;;
6420;SDS011;3243;50.958;7.012;2023-02-26T00:23:59;9.57;;;4.33;;
6420;SDS011;3243;50.958;7.012;2023-02-26T00:26:28;11.37;;;3.90;;
6420;SDS011;3243;50.958;7.012;2023-02-26T00:28:56;11.50;;;4.60;;
6420;SDS011;3243;50.958;7.012;2023-02-26T00:31:24;11.60;;;3.80;;
6420;SDS011;3243;50.958;7.012;2023-02-26T00:33:55;11.73;;;5.07;;
6420;SDS011;3243;50.958;7.012;2023-02-26T00:36:23;11.57;;;4.57;;
6420;SDS011;3243;50.958;7.012;2023-02-26T00:41:51;11.40;;;4.27;;
6420;SDS011;3243;50.958;7.012;2023-02-26T00:44:18;7.37;;;3.77;;
6420;SDS011;3243;50.958;7.012;2023-02-26T00:47:00;9.07;;;3.60;;
6420;SDS011;3243;50.958;7.012;2023-02-26T00:52:52;6.07;;;3.07;;
6420;SDS011;3243;50.958;7.012;2023-02-26T00:55:38;10.30;;;3.47;;
6420;SDS011;3243;50.958;7.012;2023-02-26T00:58:04;8.43;;;3.27;;
6420;SDS011;3243;50.958;7.012;2023-02-26T01:00:31;8.83;;;2.77;;
6420;SDS011;3243;50.958;7.012;2023-02-26T01:02:58;7.37;;;2.47;;
6420;SDS011;3243;50.958;7.012;2023-02-26T01:05:25;6.20;;;2.30;;
6420;SDS011;3243;50.958;7.012;2023-02-26T01:10:22;5.17;;;2.70;;
6420;SDS011;3243;50.958;7.012;2023-02-26T01:12:49;5.27;;;2.40;;
6420;SDS011;3243;50.958;7.012;2023-02-26T01:15:16;6.87;;;2.87;;
6420;SDS011;3243;50.958;7.012;2023-02-26T01:20:47;7.30;;;2.80;;
6420;SDS011;3243;50.958;7.012;2023-02-26T01:23:17;5.50;;;2.90;;
6420;SDS011;3243;50.958;7.012;2023-02-26T01:25:55;7.13;;;2.53;;
6420;SDS011;3243;50.958;7.012;2023-02-26T01:28:26;6.67;;;2.63;;
6420;SDS011;3243;50.958;7.012;2023-02-26T01:30:54;6.10;;;2.50;;
6420;SDS011;3243;50.958;7.012;2023-02-26T01:33:34;6.10;;;2.50;;
6420;SDS011;3243;50.958;7.012;2023-02-26T01:36:16;4.07;;;2.17;;
6420;SDS011;3243;50.958;7.012;2023-02-26T01:49:40;5.87;;;2.57;;
6420;SDS011;3243;50.958;7.012;2023-02-26T01:55:12;7.40;;;3.17;;
6420;SDS011;3243;50.958;7.012;2023-02-26T01:57:40;8.20;;;3.27;;
6420;SDS011;3243;50.958;7.012;2023-02-26T02:00:07;6.03;;;3.13;;
6420;SDS011;3243;50.958;7.012;2023-02-26T02:02:35;7.07;;;3.03;;
6420;SDS011;3243;50.958;7.012;2023-02-26T02:05:03;6.53;;;2.73;;
6420;SDS011;3243;50.958;7.012;2023-02-26T02:07:34;8.20;;;3.20;;
6420;SDS011;3243;50.958;7.012;2023-02-26T02:10:00;7.73;;;3.10;;
6420;SDS011;3243;50.958;7.012;2023-02-26T02:12:31;6.07;;;3.50;;
6420;SDS011;3243;50.958;7.012;2023-02-26T02:20:26;7.30;;;2.70;;
6420;SDS011;3243;50.958;7.012;2023-02-26T02:23:09;8.33;;;3.33;;
6420;SDS011;3243;50.958;7.012;2023-02-26T02:33:49;6.47;;;3.53;;
6420;SDS011;3243;50.958;7.012;2023-02-26T02:36:34;5.20;;;3.00;;
6420;SDS011;3243;50.958;7.012;2023-02-26T02:39:10;5.60;;;2.70;;
6420;SDS011;3243;50.958;7.012;2023-02-26T02:41:46;6.07;;;3.37;;
6420;SDS011;3243;50.958;7.012;2023-02-26T02:44:18;4.33;;;2.30;;
6420;SDS011;3243;50.958;7.012;2023-02-26T02:46:51;7.13;;;2.10;;
6420;SDS011;3243;50.958;7.012;2023-02-26T02:51:54;4.33;;;2.40;;
6420;SDS011;3243;50.958;7.012;2023-02-26T02:54:29;7.13;;;2.03;;
6420;SDS011;3243;50.958;7.012;2023-02-26T02:57:26;4.57;;;2.10;;
6420;SDS011;3243;50.958;7.012;2023-02-26T02:59:57;5.93;;;2.43;;
6420;SDS011;3243;50.958;7.012;2023-02-26T03:02:31;6.83;;;2.37;;
6420;SDS011;3243;50.958;7.012;2023-02-26T03:05:02;4.90;;;2.40;;
6420;SDS011;3243;50.958;7.012;2023-02-26T03:07:30;7.03;;;2.30;;
6420;SDS011;3243;50.958;7.012;2023-02-26T03:10:01;6.23;;;2.50;;
6420;SDS011;3243;50.958;7.012;2023-02-26T03:12:31;6.37;;;2.40;;
6420;SDS011;3243;50.958;7.012;2023-02-26T03:14:59;5.73;;;2.30;;
6420;SDS011;3243;50.958;7.012;2023-02-26T03:17:49;6.97;;;2.20;;
6420;SDS011;3243;50.958;7.012;2023-02-26T03:20:31;3.87;;;2.10;;
6420;SDS011;3243;50.958;7.012;2023-02-26T03:26:41;5.57;;;2.30;;
6420;SDS011;3243;50.958;7.012;2023-02-26T03:28:40;4.17;;;2.33;;
6420;SDS011;3243;50.958;7.012;2023-02-26T03:36:46;4.10;;;2.40;;
6420;SDS011;3243;50.958;7.012;2023-02-26T03:47:18;9.93;;;2.50;;
6420;SDS011;3243;50.958;7.012;2023-02-26T03:52:21;8.73;;;2.70;;
6420;SDS011;3243;50.958;7.012;2023-02-26T03:54:52;3.80;;;1.77;;
6420;SDS011;3243;50.958;7.012;2023-02-26T03:57:24;2.67;;;1.73;;
6420;SDS011;3243;50.958;7.012;2023-02-26T03:59:51;4.60;;;1.90;;
6420;SDS011;3243;50.958;7.012;2023-02-26T04:02:19;4.53;;;2.00;;
6420;SDS011;3243;50.958;7.012;2023-02-26T04:04:56;5.67;;;2.10;;
6420;SDS011;3243;50.958;7.012;2023-02-26T04:07:28;6.70;;;2.10;;
6420;SDS011;3243;50.958;7.012;2023-02-26T04:09:55;4.80;;;1.80;;
6420;SDS011;3243;50.958;7.012;2023-02-26T04:12:24;3.63;;;2.03;;
6420;SDS011;3243;50.958;7.012;2023-02-26T04:14:51;3.50;;;2.17;;
6420;SDS011;3243;50.958;7.012;2023-02-26T04:17:19;3.10;;;1.73;;
6420;SDS011;3243;50.958;7.012;2023-02-26T04:19:46;3.93;;;1.93;;
6420;SDS011;3243;50.958;7.012;2023-02-26T04:22:13;5.23;;;1.90;;
6420;SDS011;3243;50.958;7.012;2023-02-26T04:24:40;5.30;;;1.90;;
6420;SDS011;3243;50.958;7.012;2023-02-26T04:27:06;4.93;;;2.13;;
6420;SDS011;3243;50.958;7.012;2023-02-26T04:29:33;4.60;;;1.87;;
6420;SDS011;3243;50.958;7.012;2023-02-26T04:32:00;7.03;;;2.23;;
6420;SDS011;3243;50.958;7.012;2023-02-26T04:34:27;3.90;;;1.83;;
6420;SDS011;3243;50.958;7.012;2023-02-26T04:36:54;5.33;;;1.70;;
6420;SDS011;3243;50.958;7.012;2023-02-26T04:39:20;4.47;;;1.70;;
6420;SDS011;3243;50.958;7.012;2023-02-26T04:41:47;3.60;;;1.80;;
6420;SDS011;3243;50.958;7.012;2023-02-26T04:44:14;4.30;;;1.90;;
6420;SDS011;3243;50.958;7.012;2023-02-26T04:46:41;6.10;;;2.13;;
6420;SDS011;3243;50.958;7.012;2023-02-26T04:49:08;4.50;;;2.20;;
6420;SDS011;3243;50.958;7.012;2023-02-26T04:51:34;5.33;;;2.10;;
6420;SDS011;3243;50.958;7.012;2023-02-26T04:54:01;5.80;;;2.07;;
6420;SDS011;3243;50.958;7.012;2023-02-26T04:56:28;4.60;;;2.27;;
6420;SDS011;3243;50.958;7.012;2023-02-26T04:58:57;3.33;;;1.80;;
6420;SDS011;3243;50.958;7.012;2023-02-26T05:01:24;3.73;;;1.90;;
6420;SDS011;3243;50.958;7.012;2023-02-26T05:03:51;3.57;;;2.57;;
6420;SDS011;3243;50.958;7.012;2023-02-26T05:06:17;5.93;;;2.10;;
6420;SDS011;3243;50.958;7.012;2023-02-26T05:08:44;4.90;;;1.93;;
6420;SDS011;3243;50.958;7.012;2023-02-26T05:11:11;6.40;;;2.10;;
6420;SDS011;3243;50.958;7.012;2023-02-26T05:13:38;2.90;;;1.80;;
6420;SDS011;3243;50.958;7.012;2023-02-26T05:16:05;3.87;;;1.73;;
6420;SDS011;3243;50.958;7.012;2023-02-26T05:18:33;6.17;;;1.83;;
6420;SDS011;3243;50.958;7.012;2023-02-26T05:21:00;3.20;;;1.80;;
6420;SDS011;3243;50.958;7.012;2023-02-26T05:23:27;4.87;;;2.07;;
6420;SDS011;3243;50.958;7.012;2023-02-26T05:25:54;4.60;;;2.03;;
6420;SDS011;3243;50.958;7.012;2023-02-26T05:28:22;5.53;;;1.93;;
6420;SDS011;3243;50.958;7.012;2023-02-26T05:30:52;3.93;;;1.80;;
6420;SDS011;3243;50.958;7.012;2023-02-26T05:33:20;4.93;;;2.63;;
6420;SDS011;3243;50.958;7.012;2023-02-26T05:35:47;3.57;;;1.90;;
6420;SDS011;3243;50.958;7.012;2023-02-26T05:38:14;2.87;;;1.90;;
6420;SDS011;3243;50.958;7.012;2023-02-26T05:40:41;1.90;;;1.70;;
6420;SDS011;3243;50.958;7.012;2023-02-26T05:43:08;5.07;;;1.93;;
6420;SDS011;3243;50.958;7.012;2023-02-26T05:45:35;2.43;;;1.80;;
6420;SDS011;3243;50.958;7.012;2023-02-26T05:48:02;7.27;;;2.07;;
6420;SDS011;3243;50.958;7.012;2023-02-26T05:50:28;3.37;;;1.67;;
6420;SDS011;3243;50.958;7.012;2023-02-26T05:52:56;3.93;;;1.90;;
6420;SDS011;3243;50.958;7.012;2023-02-26T05:55:23;3.47;;;1.70;;
6420;SDS011;3243;50.958;7.012;2023-02-26T05:57:49;5.80;;;1.90;;
6420;SDS011;3243;50.958;7.012;2023-02-26T06:00:16;3.20;;;1.70;;
6420;SDS011;3243;50.958;7.012;2023-02-26T06:02:43;3.93;;;1.93;;
6420;SDS011;3243;50.958;7.012;2023-02-26T06:05:10;4.00;;;1.77;;
6420;SDS011;3243;50.958;7.012;2023-02-26T06:07:37;5.77;;;2.63;;
6420;SDS011;3243;50.958;7.012;2023-02-26T06:10:04;6.30;;;2.03;;
6420;SDS011;3243;50.958;7.012;2023-02-26T06:12:33;5.13;;;2.30;;
6420;SDS011;3243;50.958;7.012;2023-02-26T06:15:01;6.47;;;2.30;;
6420;SDS011;3243;50.958;7.012;2023-02-26T06:17:28;3.80;;;2.00;;
6420;SDS011;3243;50.958;7.012;2023-02-26T06:19:55;4.23;;;2.10;;
6420;SDS011;3243;50.958;7.012;2023-02-26T06:22:22;6.37;;;2.20;;
6420;SDS011;3243;50.958;7.012;2023-02-26T06:24:49;6.50;;;2.23;;
6420;SDS011;3243;50.958;7.012;2023-02-26T06:27:15;7.00;;;2.13;;
6420;SDS011;3243;50.958;7.012;2023-02-26T06:29:42;7.57;;;1.93;;
6420;SDS011;3243;50.958;7.012;2023-02-26T06:32:09;5.30;;;2.20;;
6420;SDS011;3243;50.958;7.012;2023-02-26T06:34:36;3.93;;;2.27;;
6420;SDS011;3243;50.958;7.012;2023-02-26T06:37:02;3.47;;;2.00;;
6420;SDS011;3243;50.958;7.012;2023-02-26T06:39:29;4.23;;;2.03;;
6420;SDS011;3243;50.958;7.012;2023-02-26T06:41:56;5.53;;;2.07;;
6420;SDS011;3243;50.958;7.012;2023-02-26T06:44:23;5.93;;;2.30;;
6420;SDS011;3243;50.958;7.012;2023-02-26T06:46:50;3.23;;;2.17;;
6420;SDS011;3243;50.958;7.012;2023-02-26T06:49:16;4.63;;;2.50;;
6420;SDS011;3243;50.958;7.012;2023-02-26T06:51:43;4.23;;;2.30;;
6420;SDS011;3243;50.958;7.012;2023-02-26T06:54:10;4.93;;;2.60;;
6420;SDS011;3243;50.958;7.012;2023-02-26T06:56:36;3.83;;;2.30;;
6420;SDS011;3243;50.958;7.012;2023-02-26T06:59:03;7.00;;;2.70;;
6420;SDS011;3243;50.958;7.012;2023-02-26T07:01:30;6.73;;;2.60;;
6420;SDS011;3243;50.958;7.012;2023-02-26T07:03:57;4.63;;;2.63;;
6420;SDS011;3243;50.958;7.012;2023-02-26T07:06:24;6.57;;;2.80;;
6420;SDS011;3243;50.958;7.012;2023-02-26T07:09:03;5.20;;;2.60;;
6420;SDS011;3243;50.958;7.012;2023-02-26T07:11:30;4.03;;;2.33;;
6420;SDS011;3243;50.958;7.012;2023-02-26T07:13:57;5.87;;;2.87;;
6420;SDS011;3243;50.958;7.012;2023-02-26T07:16:24;6.17;;;3.10;;
6420;SDS011;3243;50.958;7.012;2023-02-26T07:18:51;7.07;;;2.77;;
6420;SDS011;3243;50.958;7.012;2023-02-26T07:21:18;5.63;;;2.77;;
6420;SDS011;3243;50.958;7.012;2023-02-26T07:23:45;6.70;;;2.93;;
6420;SDS011;3243;50.958;7.012;2023-02-26T07:26:11;4.37;;;2.80;;
6420;SDS011;3243;50.958;7.012;2023-02-26T07:28:38;4.07;;;2.70;;
6420;SDS011;3243;50.958;7.012;2023-02-26T07:31:05;7.70;;;3.20;;
6420;SDS011;3243;50.958;7.012;2023-02-26T07:33:32;5.20;;;2.80;;
6420;SDS011;3243;50.958;7.012;2023-02-26T07:36:00;4.87;;;2.73;;
6420;SDS011;3243;50.958;7.012;2023-02-26T07:38:27;5.43;;;2.80;;
6420;SDS011;3243;50.958;7.012;2023-02-26T07:40:54;5.70;;;3.00;;
6420;SDS011;3243;50.958;7.012;2023-02-26T07:43:22;9.43;;;2.87;;
6420;SDS011;3243;50.958;7.012;2023-02-26T07:45:49;5.50;;;3.00;;
6420;SDS011;3243;50.958;7.012;2023-02-26T07:48:17;8.77;;;2.93;;
6420;SDS011;3243;50.958;7.012;2023-02-26T07:50:44;4.13;;;3.00;;
6420;SDS011;3243;50.958;7.012;2023-02-26T07:53:10;3.33;;;2.87;;
6420;SDS011;3243;50.958;7.012;2023-02-26T07:55:37;5.67;;;2.70;;
6420;SDS011;3243;50.958;7.012;2023-02-26T07:58:04;6.60;;;2.70;;
6420;SDS011;3243;50.958;7.012;2023-02-26T08:00:31;5.93;;;2.97;;
6420;SDS011;3243;50.958;7.012;2023-02-26T08:02:58;4.90;;;3.07;;
6420;SDS011;3243;50.958;7.012;2023-02-26T08:05:25;7.47;;;2.67;;
6420;SDS011;3243;50.958;7.012;2023-02-26T08:07:55;9.80;;;2.90;;
6420;SDS011;3243;50.958;7.012;2023-02-26T08:10:21;5.47;;;2.80;;
6420;SDS011;3243;50.958;7.012;2023-02-26T08:12:48;3.53;;;2.57;;
6420;SDS011;3243;50.958;7.012;2023-02-26T08:15:15;5.97;;;2.53;;
6420;SDS011;3243;50.958;7.012;2023-02-26T08:17:42;3.97;;;2.57;;
6420;SDS011;3243;50.958;7.012;2023-02-26T08:20:09;6.17;;;3.10;;
6420;SDS011;3243;50.958;7.012;2023-02-26T08:22:37;5.43;;;2.90;;
6420;SDS011;3243;50.958;7.012;2023-02-26T08:25:04;4.57;;;2.70;;
6420;SDS011;3243;50.958;7.012;2023-02-26T08:27:31;4.10;;;2.93;;
6420;SDS011;3243;50.958;7.012;2023-02-26T08:29:58;3.87;;;2.50;;
6420;SDS011;3243;50.958;7.012;2023-02-26T08:32:24;5.17;;;3.03;;
6420;SDS011;3243;50.958;7.012;2023-02-26T08:34:53;5.90;;;2.73;;
6420;SDS011;3243;50.958;7.012;2023-02-26T08:37:20;5.53;;;2.43;;
6420;SDS011;3243;50.958;7.012;2023-02-26T08:39:50;6.40;;;2.50;;
6420;SDS011;3243;50.958;7.012;2023-02-26T08:42:17;6.93;;;2.80;;
6420;SDS011;3243;50.958;7.012;2023-02-26T08:44:46;4.23;;;2.83;;
6420;SDS011;3243;50.958;7.012;2023-02-26T08:47:13;3.40;;;2.40;;
6420;SDS011;3243;50.958;7.012;2023-02-26T08:49:49;4.60;;;2.50;;
6420;SDS011;3243;50.958;7.012;2023-02-26T08:52:16;5.00;;;2.20;;
6420;SDS011;3243;50.958;7.012;2023-02-26T08:54:43;3.40;;;2.20;;
6420;SDS011;3243;50.958;7.012;2023-02-26T08:57:10;7.07;;;2.30;;
6420;SDS011;3243;50.958;7.012;2023-02-26T08:59:37;4.30;;;2.33;;
6420;SDS011;3243;50.958;7.012;2023-02-26T09:02:04;3.00;;;2.17;;
6420;SDS011;3243;50.958;7.012;2023-02-26T09:04:30;5.77;;;2.17;;
6420;SDS011;3243;50.958;7.012;2023-02-26T09:06:57;2.50;;;1.90;;
6420;SDS011;3243;50.958;7.012;2023-02-26T09:09:24;4.87;;;2.10;;
6420;SDS011;3243;50.958;7.012;2023-02-26T09:11:50;4.57;;;2.13;;
6420;SDS011;3243;50.958;7.012;2023-02-26T09:14:17;3.87;;;2.00;;
6420;SDS011;3243;50.958;7.012;2023-02-26T09:16:44;3.67;;;2.20;;
6420;SDS011;3243;50.958;7.012;2023-02-26T09:19:11;3.73;;;2.23;;
6420;SDS011;3243;50.958;7.012;2023-02-26T09:21:38;4.17;;;1.80;;
6420;SDS011;3243;50.958;7.012;2023-02-26T09:24:04;4.20;;;1.67;;
6420;SDS011;3243;50.958;7.012;2023-02-26T09:26:31;4.00;;;1.70;;
6420;SDS011;3243;50.958;7.012;2023-02-26T09:28:58;3.20;;;1.90;;
6420;SDS011;3243;50.958;7.012;2023-02-26T09:31:25;3.30;;;1.63;;
6420;SDS011;3243;50.958;7.012;2023-02-26T09:33:53;4.40;;;1.70;;
6420;SDS011;3243;50.958;7.012;2023-02-26T09:36:20;3.13;;;1.60;;
6420;SDS011;3243;50.958;7.012;2023-02-26T09:38:46;3.13;;;1.80;;
6420;SDS011;3243;50.958;7.012;2023-02-26T09:41:25;5.80;;;2.30;;
6420;SDS011;3243;50.958;7.012;2023-02-26T09:46:44;3.63;;;1.93;;
6420;SDS011;3243;50.958;7.012;2023-02-26T09:54:52;4.67;;;1.80;;
6420;SDS011;3243;50.958;7.012;2023-02-26T09:57:42;5.70;;;1.87;;
6420;SDS011;3243;50.958;7.012;2023-02-26T10:00:21;4.00;;;2.43;;
6420;SDS011;3243;50.958;7.012;2023-02-26T10:03:01;3.20;;;2.27;;
6420;SDS011;3243;50.958;7.012;2023-02-26T10:11:55;3.57;;;1.90;;
6420;SDS011;3243;50.958;7.012;2023-02-26T10:17:11;2.43;;;1.40;;
6420;SDS011;3243;50.958;7.012;2023-02-26T10:19:46;2.40;;;1.60;;
6420;SDS011;3243;50.958;7.012;2023-02-26T10:22:26;4.30;;;1.50;;
6420;SDS011;3243;50.958;7.012;2023-02-26T10:25:02;2.50;;;1.50;;
6420;SDS011;3243;50.958;7.012;2023-02-26T10:27:58;3.93;;;1.67;;
6420;SDS011;3243;50.958;7.012;2023-02-26T10:30:36;3.47;;;1.77;;
6420;SDS011;3243;50.958;7.012;2023-02-26T10:35:48;2.87;;;1.50;;
6420;SDS011;3243;50.958;7.012;2023-02-26T10:38:24;2.80;;;1.20;;
6420;SDS011;3243;50.958;7.012;2023-02-26T10:41:03;2.17;;;1.30;;
6420;SDS011;3243;50.958;7.012;2023-02-26T10:43:40;2.13;;;1.20;;
6420;SDS011;3243;50.958;7.012;2023-02-26T10:51:22;2.77;;;1.70;;
6420;SDS011;3243;50.958;7.012;2023-02-26T10:53:53;2.40;;;1.40;;
6420;SDS011;3243;50.958;7.012;2023-02-26T10:56:29;2.03;;;1.40;;
6420;SDS011;3243;50.958;7.012;2023-02-26T10:58:57;1.50;;;1.40;;
6420;SDS011;3243;50.958;7.012;2023-02-26T11:01:25;3.80;;;1.40;;
6420;SDS011;3243;50.958;7.012;2023-02-26T11:04:05;2.53;;;1.57;;
6420;SDS011;3243;50.958;7.012;2023-02-26T11:06:44;2.17;;;1.50;;
6420;SDS011;3243;50.958;7.012;2023-02-26T11:09:19;3.20;;;1.50;;
6420;SDS011;3243;50.958;7.012;2023-02-26T11:11:54;2.30;;;1.47;;
6420;SDS011;3243;50.958;7.012;2023-02-26T11:14:29;1.60;;;1.50;;
6420;SDS011;3243;50.958;7.012;2023-02-26T11:16:59;2.13;;;1.47;;
6420;SDS011;3243;50.958;7.012;2023-02-26T11:19:29;1.47;;;1.10;;
6420;SDS011;3243;50.958;7.012;2023-02-26T11:21:58;2.70;;;1.40;;
6420;SDS011;3243;50.958;7.012;2023-02-26T11:24:34;1.90;;;1.50;;
6420;SDS011;3243;50.958;7.012;2023-02-26T11:27:04;2.07;;;1.50;;
6420;SDS011;3243;50.958;7.012;2023-02-26T11:29:42;3.47;;;1.60;;
6420;SDS011;3243;50.958;7.012;2023-02-26T11:32:17;2.17;;;1.57;;
6420;SDS011;3243;50.958;7.012;2023-02-26T11:34:47;2.60;;;1.30;;
6420;SDS011;3243;50.958;7.012;2023-02-26T11:37:19;1.90;;;1.50;;
6420;SDS011;3243;50.958;7.012;2023-02-26T11:39:55;2.67;;;1.33;;
6420;SDS011;3243;50.958;7.012;2023-02-26T11:42:24;1.60;;;1.50;;
6420;SDS011;3243;50.958;7.012;2023-02-26T11:44:52;1.30;;;1.20;;
6420;SDS011;3243;50.958;7.012;2023-02-26T11:47:20;2.07;;;1.50;;
6420;SDS011;3243;50.958;7.012;2023-02-26T11:49:55;2.37;;;1.40;;
6420;SDS011;3243;50.958;7.012;2023-02-26T11:52:34;3.07;;;1.40;;
6420;SDS011;3243;50.958;7.012;2023-02-26T11:55:16;1.93;;;1.37;;
6420;SDS011;3243;50.958;7.012;2023-02-26T11:57:46;1.30;;;1.20;;
6420;SDS011;3243;50.958;7.012;2023-02-26T12:00:31;2.10;;;1.50;;
6420;SDS011;3243;50.958;7.012;2023-02-26T12:03:04;1.60;;;1.50;;
6420;SDS011;3243;50.958;7.012;2023-02-26T12:05:34;2.23;;;1.40;;
6420;SDS011;3243;50.958;7.012;2023-02-26T12:08:02;3.67;;;1.60;;
6420;SDS011;3243;50.958;7.012;2023-02-26T12:26:51;2.03;;;1.20;;
6420;SDS011;3243;50.958;7.012;2023-02-26T12:33:00;1.70;;;1.20;;
6420;SDS011;3243;50.958;7.012;2023-02-26T13:13:09;2.33;;;1.50;;
6420;SDS011;3243;50.958;7.012;2023-02-26T13:16:03;1.87;;;1.60;;
6420;SDS011;3243;50.958;7.012;2023-02-26T13:18:52;2.90;;;1.30;;
6420;SDS011;3243;50.958;7.012;2023-02-26T13:21:25;1.83;;;1.50;;
6420;SDS011;3243;50.958;7.012;2023-02-26T13:24:06;2.17;;;1.37;;
6420;SDS011;3243;50.958;7.012;2023-02-26T13:26:43;3.17;;;1.50;;
6420;SDS011;3243;50.958;7.012;2023-02-26T13:32:16;2.93;;;1.40;;
6420;SDS011;3243;50.958;7.012;2023-02-26T13:37:28;3.30;;;1.57;;
6420;SDS011;3243;50.958;7.012;2023-02-26T13:42:55;1.97;;;1.40;;
6420;SDS011;3243;50.958;7.012;2023-02-26T13:51:34;3.10;;;1.40;;
6420;SDS011;3243;50.958;7.012;2023-02-26T13:54:08;1.50;;;1.40;;
6420;SDS011;3243;50.958;7.012;2023-02-26T13:59:35;1.30;;;1.20;;
6420;SDS011;3243;50.958;7.012;2023-02-26T14:04:56;3.50;;;1.63;;
6420;SDS011;3243;50.958;7.012;2023-02-26T14:10:24;2.23;;;1.20;;
6420;SDS011;3243;50.958;7.012;2023-02-26T14:16:47;2.77;;;1.63;;
6420;SDS011;3243;50.958;7.012;2023-02-26T14:24:28;4.63;;;1.57;;
6420;SDS011;3243;50.958;7.012;2023-02-26T14:32:34;1.57;;;1.37;;
6420;SDS011;3243;50.958;7.012;2023-02-26T14:35:18;1.47;;;1.30;;
6420;SDS011;3243;50.958;7.012;2023-02-26T14:38:01;2.03;;;1.20;;
6420;SDS011;3243;50.958;7.012;2023-02-26T14:40:29;1.57;;;1.30;;
6420;SDS011;3243;50.958;7.012;2023-02-26T14:43:03;2.73;;;1.37;;
6420;SDS011;3243;50.958;7.012;2023-02-26T14:45:38;1.60;;;1.40;;
6420;SDS011;3243;50.958;7.012;2023-02-26T14:48:14;1.53;;;1.30;;
6420;SDS011;3243;50.958;7.012;2023-02-26T15:01:45;2.47;;;1.50;;
6420;SDS011;3243;50.958;7.012;2023-02-26T15:07:10;2.83;;;1.40;;
6420;SDS011;3243;50.958;7.012;2023-02-26T15:22:56;2.93;;;1.20;;
6420;SDS011;3243;50.958;7.012;2023-02-26T15:25:34;1.50;;;1.27;;
6420;SDS011;3243;50.958;7.012;2023-02-26T15:28:05;2.60;;;1.63;;
6420;SDS011;3243;50.958;7.012;2023-02-26T15:30:35;2.37;;;1.43;;
6420;SDS011;3243;50.958;7.012;2023-02-26T15:33:06;1.43;;;1.20;;
6420;SDS011;3243;50.958;7.012;2023-02-26T15:35:37;2.97;;;1.60;;
6420;SDS011;3243;50.958;7.012;2023-02-26T15:38:03;2.50;;;1.57;;
6420;SDS011;3243;50.958;7.012;2023-02-26T15:40:32;1.60;;;1.40;;
6420;SDS011;3243;50.958;7.012;2023-02-26T15:43:01;1.50;;;1.40;;
6420;SDS011;3243;50.958;7.012;2023-02-26T15:45:33;2.17;;;1.60;;
6420;SDS011;3243;50.958;7.012;2023-02-26T15:48:13;1.53;;;1.40;;
6420;SDS011;3243;50.958;7.012;2023-02-26T15:50:51;1.30;;;1.20;;
6420;SDS011;3243;50.958;7.012;2023-02-26T15:53:23;1.73;;;1.30;;
6420;SDS011;3243;50.958;7.012;2023-02-26T15:55:55;2.10;;;1.70;;
6420;SDS011;3243;50.958;7.012;2023-02-26T15:58:44;2.37;;;1.37;;
6420;SDS011;3243;50.958;7.012;2023-02-26T16:01:19;2.13;;;1.40;;
6420;SDS011;3243;50.958;7.012;2023-02-26T16:03:48;3.60;;;1.37;;
6420;SDS011;3243;50.958;7.012;2023-02-26T16:06:18;2.10;;;1.30;;
6420;SDS011;3243;50.958;7.012;2023-02-26T16:08:50;2.27;;;1.30;;
6420;SDS011;3243;50.958;7.012;2023-02-26T16:11:17;1.83;;;1.60;;
6420;SDS011;3243;50.958;7.012;2023-02-26T16:13:45;1.57;;;1.40;;
6420;SDS011;3243;50.958;7.012;2023-02-26T16:16:21;1.77;;;1.30;;
6420;SDS011;3243;50.958;7.012;2023-02-26T16:18:55;2.50;;;1.40;;
6420;SDS011;3243;50.958;7.012;2023-02-26T16:21:28;5.30;;;1.50;;
6420;SDS011;3243;50.958;7.012;2023-02-26T16:23:58;3.60;;;1.60;;
6420;SDS011;3243;50.958;7.012;2023-02-26T16:26:29;5.40;;;1.30;;
6420;SDS011;3243;50.958;7.012;2023-02-26T16:29:18;3.03;;;1.50;;
6420;SDS011;3243;50.958;7.012;2023-02-26T16:31:56;2.50;;;1.80;;
6420;SDS011;3243;50.958;7.012;2023-02-26T16:39:56;2.20;;;1.60;;
6420;SDS011;3243;50.958;7.012;2023-02-26T16:47:58;1.40;;;1.30;;
6420;SDS011;3243;50.958;7.012;2023-02-26T16:50:29;1.47;;;1.20;;
6420;SDS011;3243;50.958;7.012;2023-02-26T16:55:33;2.33;;;1.50;;
6420;SDS011;3243;50.958;7.012;2023-02-26T16:58:04;2.17;;;1.50;;
6420;SDS011;3243;50.958;7.012;2023-02-26T17:00:34;3.10;;;1.40;;
6420;SDS011;3243;50.958;7.012;2023-02-26T17:03:10;2.40;;;1.30;;
6420;SDS011;3243;50.958;7.012;2023-02-26T17:05:39;6.67;;;3.20;;
6420;SDS011;3243;50.958;7.012;2023-02-26T17:10:43;14.77;;;5.47;;
6420;SDS011;3243;50.958;7.012;2023-02-26T17:13:29;3.83;;;1.83;;
6420;SDS011;3243;50.958;7.012;2023-02-26T17:15:58;2.93;;;2.00;;
6420;SDS011;3243;50.958;7.012;2023-02-26T17:18:28;6.30;;;3.30;;
6420;SDS011;3243;50.958;7.012;2023-02-26T17:20:56;3.80;;;2.20;;
6420;SDS011;3243;50.958;7.012;2023-02-26T17:23:25;17.50;;;7.70;;
6420;SDS011;3243;50.958;7.012;2023-02-26T17:25:56;6.30;;;2.03;;
6420;SDS011;3243;50.958;7.012;2023-02-26T17:28:28;6.93;;;1.90;;
6420;SDS011;3243;50.958;7.012;2023-02-26T17:30:59;3.87;;;1.53;;
6420;SDS011;3243;50.958;7.012;2023-02-26T17:33:26;4.50;;;1.90;;
6420;SDS011;3243;50.958;7.012;2023-02-26T17:35:55;2.87;;;1.70;;
6420;SDS011;3243;50.958;7.012;2023-02-26T17:38:25;3.47;;;1.90;;
6420;SDS011;3243;50.958;7.012;2023-02-26T17:40:53;3.83;;;2.03;;
6420;SDS011;3243;50.958;7.012;2023-02-26T17:43:21;4.37;;;2.10;;
6420;SDS011;3243;50.958;7.012;2023-02-26T17:45:48;3.47;;;2.00;;
6420;SDS011;3243;50.958;7.012;2023-02-26T17:48:16;2.33;;;1.70;;
6420;SDS011;3243;50.958;7.012;2023-02-26T17:50:44;2.10;;;1.60;;
6420;SDS011;3243;50.958;7.012;2023-02-26T17:53:21;5.40;;;1.90;;
6420;SDS011;3243;50.958;7.012;2023-02-26T17:55:52;4.23;;;2.00;;
6420;SDS011;3243;50.958;7.012;2023-02-26T17:58:25;2.83;;;1.70;;
6420;SDS011;3243;50.958;7.012;2023-02-26T18:00:54;3.83;;;2.30;;
6420;SDS011;3243;50.958;7.012;2023-02-26T18:03:21;3.97;;;2.33;;
6420;SDS011;3243;50.958;7.012;2023-02-26T18:05:48;5.20;;;2.30;;
6420;SDS011;3243;50.958;7.012;2023-02-26T18:10:48;4.10;;;2.40;;
6420;SDS011;3243;50.958;7.012;2023-02-26T18:13:16;4.17;;;2.20;;
6420;SDS011;3243;50.958;7.012;2023-02-26T18:15:43;3.53;;;2.20;;
6420;SDS011;3243;50.958;7.012;2023-02-26T18:18:11;3.30;;;1.93;;
6420;SDS011;3243;50.958;7.012;2023-02-26T18:20:39;5.03;;;2.00;;
6420;SDS011;3243;50.958;7.012;2023-02-26T18:23:07;5.17;;;2.40;;
6420;SDS011;3243;50.958;7.012;2023-02-26T18:25:37;5.70;;;2.67;;
6420;SDS011;3243;50.958;7.012;2023-02-26T18:28:04;4.80;;;2.47;;
6420;SDS011;3243;50.958;7.012;2023-02-26T18:30:33;4.53;;;2.50;;
6420;SDS011;3243;50.958;7.012;2023-02-26T18:33:01;4.30;;;2.83;;
6420;SDS011;3243;50.958;7.012;2023-02-26T18:35:29;4.67;;;2.97;;
6420;SDS011;3243;50.958;7.012;2023-02-26T18:37:56;4.33;;;2.87;;
6420;SDS011;3243;50.958;7.012;2023-02-26T18:40:24;6.40;;;2.93;;
6420;SDS011;3243;50.958;7.012;2023-02-26T18:42:52;6.27;;;2.93;;
6420;SDS011;3243;50.958;7.012;2023-02-26T18:45:19;6.97;;;2.93;;
6420;SDS011;3243;50.958;7.012;2023-02-26T18:47:46;7.70;;;3.53;;
6420;SDS011;3243;50.958;7.012;2023-02-26T18:50:15;4.60;;;3.10;;
6420;SDS011;3243;50.958;7.012;2023-02-26T18:52:43;5.13;;;2.80;;
6420;SDS011;3243;50.958;7.012;2023-02-26T18:55:10;5.57;;;2.90;;
6420;SDS011;3243;50.958;7.012;2023-02-26T18:57:38;6.97;;;3.00;;
6420;SDS011;3243;50.958;7.012;2023-02-26T19:00:08;3.33;;;2.50;;
6420;SDS011;3243;50.958;7.012;2023-02-26T19:02:42;6.30;;;2.90;;
6420;SDS011;3243;50.958;7.012;2023-02-26T19:05:10;4.43;;;3.13;;
6420;SDS011;3243;50.958;7.012;2023-02-26T19:07:38;5.00;;;3.00;;
6420;SDS011;3243;50.958;7.012;2023-02-26T19:10:07;4.53;;;3.17;;
6420;SDS011;3243;50.958;7.012;2023-02-26T19:12:36;7.83;;;4.20;;
6420;SDS011;3243;50.958;7.012;2023-02-26T19:15:03;5.17;;;3.30;;
6420;SDS011;3243;50.958;7.012;2023-02-26T19:17:30;4.93;;;4.00;;
6420;SDS011;3243;50.958;7.012;2023-02-26T19:19:57;7.43;;;3.97;;
6420;SDS011;3243;50.958;7.012;2023-02-26T19:22:24;6.93;;;3.40;;